createdAt,value
2024-02-05T00:00:53.745Z,5.23
2024-02-05T00:03:23.001Z,5.80
2024-02-05T00:05:50.790Z,5.57
2024-02-05T00:08:18.583Z,4.65
2024-02-05T00:10:47.395Z,4.95
2024-02-05T00:13:15.751Z,5.05
2024-02-05T00:15:43.879Z,4.37
2024-02-05T00:18:11.980Z,4.32
2024-02-05T00:20:41.222Z,3.80
2024-02-05T00:23:09.092Z,4.15
2024-02-05T00:25:38.863Z,4.30
2024-02-05T00:28:07.013Z,4.18
2024-02-05T00:30:34.859Z,4.18
2024-02-05T00:33:02.902Z,3.42
2024-02-05T00:35:33.062Z,3.80
2024-02-05T00:38:02.707Z,3.75
2024-02-05T00:40:30.795Z,3.45
2024-02-05T00:42:58.632Z,3.67
2024-02-05T00:45:26.629Z,3.60
2024-02-05T00:47:54.650Z,3.25
2024-02-05T00:50:22.553Z,3.60
2024-02-05T00:52:50.306Z,4.03
2024-02-05T00:55:19.718Z,3.35
2024-02-05T00:57:48.398Z,3.60
2024-02-05T01:00:17.298Z,3.30
2024-02-05T01:02:45.046Z,3.85
2024-02-05T01:05:13.093Z,3.38
2024-02-05T01:07:41.108Z,3.90
2024-02-05T01:10:11.815Z,3.40
2024-02-05T01:12:41.366Z,3.80
2024-02-05T01:15:09.686Z,2.83
2024-02-05T01:17:37.514Z,3.80
2024-02-05T01:20:11.659Z,3.40
2024-02-05T01:22:40.283Z,3.90
2024-02-05T01:25:09.421Z,3.60
2024-02-05T01:27:37.508Z,3.28
2024-02-05T01:30:07.527Z,3.83
2024-02-05T01:32:35.517Z,4.23
2024-02-05T01:35:04.154Z,3.40
2024-02-05T01:37:32.271Z,3.75
2024-02-05T01:40:00.112Z,4.15
2024-02-05T01:42:28.263Z,4.03
2024-02-05T01:44:56.015Z,4.00
2024-02-05T01:47:26.949Z,3.95
2024-02-05T01:49:54.950Z,3.50
2024-02-05T01:52:22.852Z,4.10
2024-02-05T01:54:51.463Z,3.80
2024-02-05T01:57:19.400Z,3.88
2024-02-05T01:59:47.389Z,4.53
2024-02-05T02:02:15.406Z,3.78
2024-02-05T02:04:44.754Z,4.78
2024-02-05T02:07:13.111Z,4.07
2024-02-05T02:09:41.136Z,3.80
2024-02-05T02:12:09.934Z,4.43
2024-02-05T02:14:38.649Z,3.80
2024-02-05T02:17:06.712Z,4.50
2024-02-05T02:19:48.431Z,4.25
2024-02-05T02:22:22.491Z,4.25
2024-02-05T02:24:51.853Z,4.53
2024-02-05T02:27:19.661Z,4.55
2024-02-05T02:29:47.603Z,4.43
2024-02-05T02:32:22.386Z,4.18
2024-02-05T02:34:50.792Z,4.90
2024-02-05T02:37:20.029Z,4.43
2024-02-05T02:39:53.249Z,4.88
2024-02-05T02:42:21.654Z,4.25
2024-02-05T02:44:49.866Z,3.75
2024-02-05T02:47:17.769Z,4.50
2024-02-05T02:49:45.647Z,3.65
2024-02-05T02:52:13.548Z,4.40
2024-02-05T02:54:41.410Z,4.33
2024-02-05T02:57:10.686Z,3.80
2024-02-05T02:59:38.577Z,4.20
2024-02-05T03:02:06.578Z,3.75
2024-02-05T03:04:34.405Z,4.22
2024-02-05T03:07:02.281Z,4.10
2024-02-05T03:09:30.144Z,3.85
2024-02-05T03:11:57.908Z,4.15
2024-02-05T03:14:27.298Z,4.55
2024-02-05T03:16:55.220Z,4.13
2024-02-05T03:19:23.154Z,4.25
2024-02-05T03:21:51.436Z,4.88
2024-02-05T03:24:19.258Z,3.95
2024-02-05T03:26:47.073Z,4.43
2024-02-05T03:29:15.140Z,3.85
2024-02-05T03:31:44.610Z,4.60
2024-02-05T03:34:12.951Z,4.47
2024-02-05T03:36:40.930Z,4.17
2024-02-05T03:39:08.868Z,4.68
2024-02-05T03:41:36.669Z,5.13
2024-02-05T03:44:04.561Z,4.97
2024-02-05T03:46:32.369Z,4.57
2024-02-05T03:49:01.663Z,5.80
2024-02-05T03:51:29.436Z,5.88
2024-02-05T03:53:57.220Z,5.47
2024-02-05T03:56:25.022Z,4.70
2024-02-05T03:58:52.786Z,5.15
2024-02-05T04:01:20.633Z,5.28
2024-02-05T04:03:48.475Z,5.20
2024-02-05T04:06:17.934Z,4.57
2024-02-05T04:08:45.677Z,5.13
2024-02-05T04:11:13.445Z,5.20
2024-02-05T04:13:41.169Z,5.13
2024-02-05T04:16:15.197Z,4.85
2024-02-05T04:18:42.958Z,5.32
2024-02-05T04:21:10.759Z,4.78
2024-02-05T04:23:40.310Z,4.70
2024-02-05T04:26:15.884Z,5.10
2024-02-05T04:28:43.691Z,4.78
2024-02-05T04:31:11.818Z,5.00
2024-02-05T04:33:39.935Z,5.13
2024-02-05T04:36:11.933Z,4.75
2024-02-05T04:38:41.442Z,5.40
2024-02-05T04:41:10.763Z,5.05
2024-02-05T04:43:40.159Z,4.95
2024-02-05T04:46:10.210Z,5.18
2024-02-05T04:48:38.231Z,4.90
2024-02-05T04:51:11.582Z,4.32
2024-02-05T04:53:39.406Z,4.47
2024-02-05T04:56:09.218Z,4.55
2024-02-05T04:58:37.164Z,5.10
2024-02-05T05:01:07.640Z,4.95
2024-02-05T05:03:38.263Z,4.37
2024-02-05T05:06:06.434Z,4.82
2024-02-05T05:08:35.283Z,4.40
2024-02-05T05:11:03.209Z,4.65
2024-02-05T05:13:32.455Z,4.63
2024-02-05T05:16:02.993Z,4.57
2024-02-05T05:18:30.842Z,4.18
2024-02-05T05:20:58.701Z,5.40
2024-02-05T05:23:26.523Z,4.35
2024-02-05T05:25:54.251Z,4.70
2024-02-05T05:28:22.116Z,5.47
2024-02-05T05:30:51.472Z,5.22
2024-02-05T05:33:19.286Z,4.75
2024-02-05T05:35:47.052Z,5.25
2024-02-05T05:38:14.920Z,5.25
2024-02-05T05:40:42.739Z,4.90
2024-02-05T05:43:10.567Z,4.73
2024-02-05T05:45:38.496Z,5.03
2024-02-05T05:48:08.884Z,5.45
2024-02-05T05:50:36.697Z,5.28
2024-02-05T05:53:04.600Z,5.45
2024-02-05T05:55:32.444Z,5.10
2024-02-05T05:58:00.226Z,5.43
2024-02-05T06:00:28.239Z,5.43
2024-02-05T06:02:57.236Z,4.88
2024-02-05T06:05:26.591Z,5.13
2024-02-05T06:07:54.422Z,4.90
2024-02-05T06:10:22.410Z,4.97
2024-02-05T06:12:50.369Z,5.18
2024-02-05T06:15:18.133Z,5.10
2024-02-05T06:17:45.896Z,4.78
2024-02-05T06:20:16.473Z,4.80
2024-02-05T06:22:47.501Z,5.38
2024-02-05T06:25:15.396Z,5.40
2024-02-05T06:27:43.283Z,5.23
2024-02-05T06:30:12.238Z,5.53
2024-02-05T06:32:40.198Z,5.35
2024-02-05T06:35:08.985Z,5.10
2024-02-05T06:37:37.000Z,5.82
2024-02-05T06:40:07.705Z,5.93
2024-02-05T06:42:35.580Z,6.40
2024-02-05T06:45:05.178Z,5.85
2024-02-05T06:47:33.198Z,5.63
2024-02-05T06:50:01.156Z,6.40
2024-02-05T06:52:29.020Z,6.78
2024-02-05T06:54:56.873Z,5.75
2024-02-05T06:57:25.988Z,6.80
2024-02-05T06:59:53.686Z,6.47
2024-02-05T07:02:21.752Z,5.97
2024-02-05T07:04:49.869Z,6.85
2024-02-05T07:07:18.053Z,6.22
2024-02-05T07:09:45.899Z,5.88
2024-02-05T07:12:13.667Z,6.07
2024-02-05T07:14:42.850Z,6.05
2024-02-05T07:17:10.690Z,6.40
2024-02-05T07:19:38.530Z,5.87
2024-02-05T07:22:06.531Z,5.88
2024-02-05T07:24:34.295Z,5.93
2024-02-05T07:27:02.384Z,6.43
2024-02-05T07:29:30.118Z,5.65
2024-02-05T07:31:59.412Z,5.53
2024-02-05T07:34:27.234Z,6.18
2024-02-05T07:36:55.064Z,6.55
2024-02-05T07:39:22.956Z,5.38
2024-02-05T07:41:50.630Z,6.03
2024-02-05T07:44:18.557Z,6.03
2024-02-05T07:46:46.258Z,6.20
2024-02-05T07:49:15.519Z,6.35
2024-02-05T07:51:46.774Z,6.20
2024-02-05T07:54:14.695Z,5.68
2024-02-05T07:56:42.988Z,6.00
2024-02-05T07:59:10.785Z,6.10
2024-02-05T08:01:38.677Z,6.00
2024-02-05T08:04:06.772Z,6.78
2024-02-05T08:06:36.157Z,5.75
2024-02-05T08:09:05.564Z,6.03
2024-02-05T08:11:33.518Z,5.90
2024-02-05T08:14:01.460Z,5.93
2024-02-05T08:16:29.356Z,5.93
2024-02-05T08:18:57.252Z,6.13
2024-02-05T08:21:25.171Z,6.55
2024-02-05T08:23:54.398Z,6.60
2024-02-05T08:26:22.211Z,5.65
2024-02-05T08:28:51.554Z,5.50
2024-02-05T08:31:21.113Z,6.15
2024-02-05T08:33:49.189Z,5.75
2024-02-05T08:36:18.148Z,6.20
2024-02-05T08:38:45.845Z,6.00
2024-02-05T08:41:15.119Z,5.75
2024-02-05T08:43:43.027Z,5.93
2024-02-05T08:46:10.939Z,5.53
2024-02-05T08:48:41.524Z,6.30
2024-02-05T08:51:09.504Z,5.90
2024-02-05T08:53:38.519Z,6.28
2024-02-05T08:56:07.402Z,5.70
2024-02-05T08:58:36.698Z,5.53
2024-02-05T09:01:05.234Z,6.10
2024-02-05T09:03:33.288Z,5.97
2024-02-05T09:06:01.884Z,5.90
2024-02-05T09:08:29.660Z,5.47
2024-02-05T09:10:57.528Z,5.83
2024-02-05T09:13:25.520Z,5.80
2024-02-05T09:15:54.740Z,5.95
2024-02-05T09:18:23.631Z,5.57
2024-02-05T09:20:51.475Z,5.78
2024-02-05T09:23:19.300Z,5.43
2024-02-05T09:25:47.428Z,5.35
2024-02-05T09:28:15.296Z,5.18
2024-02-05T09:30:43.989Z,6.18
2024-02-05T09:33:13.570Z,5.80
2024-02-05T09:35:41.517Z,5.50
2024-02-05T09:38:09.358Z,5.55
2024-02-05T09:40:37.763Z,5.38
2024-02-05T09:43:06.518Z,5.63
2024-02-05T09:45:37.140Z,5.60
2024-02-05T09:48:05.561Z,5.43
2024-02-05T09:50:37.748Z,5.33
2024-02-05T09:53:05.952Z,6.03
2024-02-05T09:55:33.937Z,5.23
2024-02-05T09:58:01.769Z,5.65
2024-02-05T10:00:29.709Z,5.00
2024-02-05T10:02:57.547Z,5.47
2024-02-05T10:05:26.115Z,5.90
2024-02-05T10:07:56.624Z,5.68
2024-02-05T10:10:25.022Z,5.03
2024-02-05T10:12:53.377Z,5.75
2024-02-05T10:15:21.613Z,4.37
2024-02-05T10:17:49.903Z,4.60
2024-02-05T10:20:18.579Z,4.85
2024-02-05T10:22:47.551Z,4.45
2024-02-05T10:25:17.768Z,4.72
2024-02-05T10:27:45.779Z,4.88
2024-02-05T10:30:18.148Z,4.45
2024-02-05T10:32:46.230Z,5.18
2024-02-05T10:35:18.083Z,4.47
2024-02-05T10:37:45.862Z,4.50
2024-02-05T10:40:14.176Z,4.80
2024-02-05T10:42:43.654Z,4.97
2024-02-05T10:45:12.663Z,4.97
2024-02-05T10:47:40.857Z,4.45
2024-02-05T10:50:11.842Z,5.25
2024-02-05T10:52:42.239Z,5.28
2024-02-05T10:55:14.030Z,5.70
2024-02-05T10:57:45.371Z,5.93
2024-02-05T11:00:14.739Z,6.15
2024-02-05T11:02:44.095Z,7.22
2024-02-05T11:05:13.390Z,7.57
2024-02-05T11:07:48.632Z,7.90
2024-02-05T11:10:17.497Z,7.85
2024-02-05T11:12:48.492Z,7.82
2024-02-05T11:15:23.274Z,8.73
2024-02-05T11:17:52.239Z,8.52
2024-02-05T11:20:21.076Z,7.87
2024-02-05T11:22:51.323Z,7.75
2024-02-05T11:25:19.410Z,7.05
2024-02-05T11:27:51.818Z,7.97
2024-02-05T11:30:19.911Z,7.63
2024-02-05T11:32:47.815Z,7.68
2024-02-05T11:35:16.222Z,6.40
2024-02-05T11:37:45.351Z,6.53
2024-02-05T11:40:19.948Z,6.18
2024-02-05T11:42:49.208Z,5.78
2024-02-05T11:45:17.210Z,5.75
2024-02-05T11:47:45.054Z,6.67
2024-02-05T11:50:13.092Z,6.15
2024-02-05T11:52:41.128Z,5.30
2024-02-05T11:55:09.744Z,5.57
2024-02-05T11:57:37.553Z,4.68
2024-02-05T12:00:08.356Z,5.30
2024-02-05T12:02:38.878Z,5.45
2024-02-05T12:05:08.651Z,6.60
2024-02-05T12:07:36.578Z,5.97
2024-02-05T12:10:05.698Z,6.07
2024-02-05T12:12:33.801Z,5.78
2024-02-05T12:15:01.567Z,6.07
2024-02-05T12:17:32.805Z,5.97
2024-02-05T12:20:01.001Z,4.93
2024-02-05T12:22:29.105Z,5.22
2024-02-05T12:24:57.330Z,4.57
2024-02-05T12:27:26.649Z,4.80
2024-02-05T12:30:06.190Z,4.75
2024-02-05T12:32:42.530Z,4.22
2024-02-05T12:35:15.980Z,4.32
2024-02-05T12:37:44.193Z,3.90
2024-02-05T12:40:13.165Z,5.43
2024-02-05T12:42:41.082Z,4.40
2024-02-05T12:45:12.565Z,3.83
2024-02-05T12:47:45.449Z,4.82
2024-02-05T12:50:13.602Z,4.13
2024-02-05T12:52:41.813Z,4.90
2024-02-05T12:55:10.434Z,4.95
2024-02-05T12:57:38.684Z,5.03
2024-02-05T13:00:09.287Z,3.95
2024-02-05T13:02:37.490Z,4.10
2024-02-05T13:05:09.138Z,4.13
2024-02-05T13:07:38.082Z,5.07
2024-02-05T13:10:08.771Z,4.43
2024-02-05T13:12:36.661Z,5.10
2024-02-05T13:15:05.683Z,4.90
2024-02-05T13:17:33.769Z,4.35
2024-02-05T13:20:02.169Z,4.07
2024-02-05T13:22:31.474Z,4.75
2024-02-05T13:24:59.304Z,4.35
2024-02-05T13:27:27.133Z,4.13
2024-02-05T13:29:54.991Z,4.17
2024-02-05T13:32:23.029Z,4.38
2024-02-05T13:34:50.961Z,4.53
2024-02-05T13:37:18.807Z,5.20
2024-02-05T13:39:48.033Z,4.93
2024-02-05T13:42:15.824Z,4.55
2024-02-05T13:44:44.828Z,4.80
2024-02-05T13:47:12.661Z,4.65
2024-02-05T13:49:40.578Z,4.90
2024-02-05T13:52:08.694Z,4.90
2024-02-05T13:54:36.585Z,4.50
2024-02-05T13:57:05.964Z,4.40
2024-02-05T13:59:33.818Z,4.30
2024-02-05T14:02:01.746Z,5.20
2024-02-05T14:04:30.572Z,4.07
2024-02-05T14:06:59.114Z,4.43
2024-02-05T14:09:27.066Z,4.32
2024-02-05T14:11:54.872Z,4.80
2024-02-05T14:14:25.890Z,3.95
2024-02-05T14:16:53.760Z,5.05
2024-02-05T14:19:21.696Z,4.25
2024-02-05T14:21:50.134Z,4.57
2024-02-05T14:24:18.002Z,5.03
2024-02-05T14:26:45.719Z,7.20
2024-02-05T14:29:13.523Z,4.60
2024-02-05T14:31:42.717Z,5.60
2024-02-05T14:34:11.082Z,5.65
2024-02-05T14:36:39.016Z,4.90
2024-02-05T14:39:07.633Z,4.30
2024-02-05T14:41:35.417Z,4.90
2024-02-05T14:44:04.389Z,5.40
2024-02-05T14:46:32.457Z,4.97
2024-02-05T14:49:01.770Z,4.95
2024-02-05T14:51:31.049Z,4.60
2024-02-05T14:53:58.936Z,5.10
2024-02-05T14:56:27.436Z,4.85
2024-02-05T14:58:55.158Z,4.50
2024-02-05T15:01:23.039Z,4.63
2024-02-05T15:03:53.279Z,4.47
2024-02-05T15:06:23.625Z,4.38
2024-02-05T15:08:51.402Z,4.47
2024-02-05T15:11:19.169Z,4.70
2024-02-05T15:13:50.168Z,4.65
2024-02-05T15:16:18.540Z,4.93
2024-02-05T15:18:46.494Z,5.00
2024-02-05T15:21:17.773Z,4.60
2024-02-05T15:23:47.346Z,5.43
2024-02-05T15:26:15.294Z,4.90
2024-02-05T15:28:43.184Z,5.18
2024-02-05T15:31:12.338Z,6.30
2024-02-05T15:33:40.310Z,5.70
2024-02-05T15:36:12.884Z,5.38
2024-02-05T15:38:40.605Z,5.50
2024-02-05T15:41:09.871Z,5.72
2024-02-05T15:43:37.822Z,5.82
2024-02-05T15:46:06.083Z,6.57
2024-02-05T15:48:35.027Z,7.18
2024-02-05T15:51:03.331Z,5.57
2024-02-05T15:53:31.072Z,4.37
2024-02-05T15:55:59.106Z,2.88
2024-02-05T15:58:28.460Z,3.20
2024-02-05T16:00:56.979Z,3.55
2024-02-05T16:03:24.816Z,3.50
2024-02-05T16:05:52.726Z,3.58
2024-02-05T16:08:20.634Z,3.75
2024-02-05T16:10:48.703Z,2.95
2024-02-05T16:13:16.587Z,2.55
2024-02-05T16:15:45.839Z,3.03
2024-02-05T16:18:14.307Z,2.90
2024-02-05T16:20:42.244Z,2.92
2024-02-05T16:23:10.202Z,3.08
2024-02-05T16:25:38.177Z,2.65
2024-02-05T16:28:07.167Z,3.03
2024-02-05T16:30:35.189Z,3.20
2024-02-05T16:33:04.760Z,2.50
2024-02-05T16:35:32.674Z,2.50
2024-02-05T16:38:00.474Z,2.60
2024-02-05T16:40:28.361Z,2.22
2024-02-05T16:42:56.283Z,2.75
2024-02-05T16:45:24.061Z,2.70
2024-02-05T16:47:51.918Z,2.78
2024-02-05T16:50:21.310Z,2.95
2024-02-05T16:52:49.541Z,3.28
2024-02-05T16:55:17.516Z,3.72
2024-02-05T16:57:45.502Z,3.58
2024-02-05T17:00:14.320Z,3.40
2024-02-05T17:02:42.124Z,5.50
2024-02-05T17:05:10.366Z,6.20
2024-02-05T17:07:45.329Z,5.70
2024-02-05T17:10:13.476Z,3.65
2024-02-05T17:12:42.330Z,3.53
2024-02-05T17:15:10.506Z,4.55
2024-02-05T17:17:38.939Z,4.13
2024-02-05T17:20:08.108Z,4.90
2024-02-05T17:22:36.011Z,3.78
2024-02-05T17:25:06.010Z,4.18
2024-02-05T17:27:33.986Z,3.78
2024-02-05T17:30:03.007Z,3.65
2024-02-05T17:32:31.241Z,3.00
2024-02-05T17:35:01.259Z,3.67
2024-02-05T17:37:29.383Z,3.65
2024-02-05T17:39:57.333Z,4.13
2024-02-05T17:42:28.859Z,4.10
2024-02-05T17:44:56.752Z,4.18
2024-02-05T17:47:24.525Z,4.00
2024-02-05T17:49:52.422Z,3.50
2024-02-05T17:52:20.393Z,3.53
2024-02-05T17:54:48.238Z,3.35
2024-02-05T17:57:15.982Z,3.30
2024-02-05T17:59:45.156Z,3.60
2024-02-05T18:02:13.119Z,3.22
2024-02-05T18:04:41.088Z,3.63
2024-02-05T18:07:09.068Z,3.75
2024-02-05T18:09:37.041Z,3.20
2024-02-05T18:12:07.464Z,3.33
2024-02-05T18:14:36.850Z,3.20
2024-02-05T18:17:06.394Z,3.20
2024-02-05T18:19:34.267Z,2.92
2024-02-05T18:22:02.112Z,3.53
2024-02-05T18:24:37.841Z,3.80
2024-02-05T18:27:13.310Z,3.50
2024-02-05T18:29:41.181Z,3.00
2024-02-05T18:32:10.674Z,4.18
2024-02-05T18:34:42.408Z,3.17
2024-02-05T18:37:12.766Z,3.50
2024-02-05T18:39:40.711Z,3.63
2024-02-05T18:42:09.315Z,3.30
2024-02-05T18:44:37.406Z,4.25
2024-02-05T18:47:05.498Z,3.50
2024-02-05T18:49:34.930Z,3.75
2024-02-05T18:52:05.812Z,3.40
2024-02-05T18:54:36.017Z,3.50
2024-02-05T18:57:03.877Z,3.50
2024-02-05T18:59:32.199Z,2.95
2024-02-05T19:02:00.271Z,3.20
2024-02-05T19:04:28.350Z,3.60
2024-02-05T19:06:57.515Z,4.07
2024-02-05T19:09:26.833Z,3.63
2024-02-05T19:11:55.983Z,3.55
2024-02-05T19:14:23.773Z,2.65
2024-02-05T19:16:51.892Z,3.90
2024-02-05T19:19:20.169Z,8.40
2024-02-05T19:21:48.297Z,4.55
2024-02-05T19:24:17.695Z,6.30
2024-02-05T19:26:46.925Z,5.32
2024-02-05T19:29:16.892Z,5.78
2024-02-05T19:31:45.598Z,6.95
2024-02-05T19:34:14.587Z,5.00
2024-02-05T19:36:42.491Z,7.57
2024-02-05T19:39:10.854Z,7.38
2024-02-05T19:41:40.211Z,7.88
2024-02-05T19:44:08.098Z,8.55
2024-02-05T19:46:36.401Z,10.38
2024-02-05T19:49:04.526Z,9.88
2024-02-05T19:51:32.607Z,15.20
2024-02-05T19:54:00.423Z,15.18
2024-02-05T19:56:28.277Z,11.77
2024-02-05T19:58:57.536Z,9.65
2024-02-05T20:01:25.467Z,10.10
2024-02-05T20:03:53.627Z,9.73
2024-02-05T20:06:21.658Z,11.27
2024-02-05T20:08:49.585Z,10.40
2024-02-05T20:11:17.407Z,9.52
2024-02-05T20:13:45.233Z,7.17
2024-02-05T20:16:14.344Z,6.57
2024-02-05T20:18:43.192Z,6.72
2024-02-05T20:21:12.764Z,5.40
2024-02-05T20:23:40.561Z,5.75
2024-02-05T20:26:08.429Z,5.25
2024-02-05T20:28:36.373Z,5.80
2024-02-05T20:31:04.318Z,6.40
2024-02-05T20:33:33.598Z,6.50
2024-02-05T20:36:01.586Z,5.53
2024-02-05T20:38:29.716Z,5.63
2024-02-05T20:40:57.781Z,5.75
2024-02-05T20:43:25.594Z,5.70
2024-02-05T20:45:53.429Z,6.45
2024-02-05T20:48:21.709Z,5.85
2024-02-05T20:50:51.186Z,5.63
2024-02-05T20:53:21.698Z,5.50
2024-02-05T20:55:49.585Z,5.85
2024-02-05T20:58:20.224Z,5.70
2024-02-05T21:00:51.443Z,5.70
2024-02-05T21:03:19.413Z,5.47
2024-02-05T21:05:47.363Z,5.88
2024-02-05T21:08:16.631Z,5.97
2024-02-05T21:10:45.057Z,6.28
2024-02-05T21:13:13.092Z,5.90
2024-02-05T21:15:41.793Z,6.40
2024-02-05T21:18:12.382Z,6.60
2024-02-05T21:20:40.934Z,7.32
2024-02-05T21:23:08.888Z,7.57
2024-02-05T21:25:38.425Z,7.00
2024-02-05T21:28:06.707Z,6.50
2024-02-05T21:30:35.892Z,6.45
2024-02-05T21:33:02.889Z,7.07
2024-02-05T21:35:30.701Z,7.47
2024-02-05T21:37:58.544Z,7.57
2024-02-05T21:40:26.478Z,6.40
2024-02-05T21:42:55.676Z,7.13
2024-02-05T21:45:23.576Z,6.32
2024-02-05T21:47:51.376Z,6.13
2024-02-05T21:50:19.552Z,6.97
2024-02-05T21:52:47.490Z,6.95
2024-02-05T21:55:16.126Z,6.75
2024-02-05T21:57:43.849Z,6.20
2024-02-05T22:00:13.972Z,6.85
2024-02-05T22:02:41.764Z,6.60
2024-02-05T22:05:10.154Z,6.90
2024-02-05T22:07:38.139Z,6.50
2024-02-05T22:10:07.048Z,7.22
2024-02-05T22:12:34.922Z,7.57
2024-02-05T22:15:04.715Z,7.38
2024-02-05T22:17:34.786Z,7.50
2024-02-05T22:20:02.720Z,10.38
2024-02-05T22:22:30.637Z,12.50
2024-02-05T22:24:58.518Z,7.03
2024-02-05T22:27:26.307Z,6.38
2024-02-05T22:29:54.056Z,6.38
2024-02-05T22:32:21.812Z,6.50
2024-02-05T22:34:51.116Z,6.57
2024-02-05T22:37:18.991Z,6.45
2024-02-05T22:39:46.802Z,6.07
2024-02-05T22:42:14.631Z,5.80
2024-02-05T22:44:42.466Z,5.97
2024-02-05T22:47:10.374Z,6.40
2024-02-05T22:49:38.667Z,6.35
2024-02-05T22:52:12.304Z,6.90
2024-02-05T22:54:40.224Z,6.70
2024-02-05T22:57:08.078Z,6.40
2024-02-05T22:59:35.907Z,6.15
2024-02-05T23:02:03.759Z,6.90
2024-02-05T23:04:32.017Z,6.80
2024-02-05T23:06:59.996Z,5.80
2024-02-05T23:09:29.202Z,6.40
2024-02-05T23:11:56.995Z,6.18
2024-02-05T23:14:25.443Z,6.80
2024-02-05T23:16:53.443Z,6.63
2024-02-05T23:19:21.658Z,6.60
2024-02-05T23:21:49.602Z,6.80
2024-02-05T23:24:17.475Z,6.57
2024-02-05T23:26:46.701Z,6.78
2024-02-05T23:29:14.576Z,6.90
2024-02-05T23:31:42.482Z,6.97
2024-02-05T23:34:10.524Z,6.72
2024-02-05T23:36:38.381Z,6.88
2024-02-05T23:39:06.193Z,6.60
2024-02-05T23:41:34.035Z,6.68
2024-02-05T23:44:03.250Z,6.88
2024-02-05T23:46:31.126Z,7.43
2024-02-05T23:49:01.467Z,6.80
2024-02-05T23:51:29.819Z,7.20
2024-02-05T23:53:57.632Z,6.65
2024-02-05T23:56:25.458Z,6.80
2024-02-05T23:58:53.427Z,6.67
